createdAt,value
2022-08-16T00:01:22.060Z,52.58
2022-08-16T00:03:52.385Z,52.81
2022-08-16T00:06:19.691Z,52.73
2022-08-16T00:08:48.851Z,52.51
2022-08-16T00:11:17.897Z,52.78
2022-08-16T00:13:53.961Z,52.62
2022-08-16T00:17:00.589Z,52.65
2022-08-16T00:19:18.663Z,52.82
2022-08-16T00:21:53.202Z,53.09
2022-08-16T00:24:31.405Z,52.82
2022-08-16T00:27:01.715Z,53.00
2022-08-16T00:29:29.639Z,53.29
2022-08-16T00:32:00.955Z,53.42
2022-08-16T00:34:44.430Z,53.34
2022-08-16T00:37:25.049Z,53.48
2022-08-16T00:40:34.235Z,53.63
2022-08-16T00:43:00.162Z,53.46
2022-08-16T00:45:57.800Z,53.81
2022-08-16T00:48:31.610Z,53.64
2022-08-16T00:51:02.140Z,53.86
2022-08-16T00:53:30.958Z,53.69
2022-08-16T00:56:00.456Z,53.51
2022-08-16T00:58:34.337Z,53.89
2022-08-16T01:01:03.279Z,53.86
2022-08-16T01:03:36.640Z,53.71
2022-08-16T01:06:40.321Z,53.79
2022-08-16T01:08:59.865Z,54.21
2022-08-16T01:11:29.395Z,54.11
2022-08-16T01:14:13.830Z,54.20
2022-08-16T01:16:47.736Z,54.03
2022-08-16T01:19:22.636Z,54.25
2022-08-16T01:21:54.092Z,54.33
2022-08-16T01:24:52.726Z,54.59
2022-08-16T01:27:43.881Z,54.64
2022-08-16T01:30:31.692Z,54.63
2022-08-16T01:33:14.102Z,54.35
2022-08-16T01:35:44.757Z,54.74
2022-08-16T01:38:20.365Z,54.49
2022-08-16T01:40:51.689Z,54.81
2022-08-16T01:43:18.968Z,54.90
2022-08-16T01:45:46.784Z,55.11
2022-08-16T01:48:27.577Z,54.91
2022-08-16T01:51:09.689Z,54.98
2022-08-16T01:53:42.169Z,55.19
2022-08-16T01:56:25.593Z,56.00
2022-08-16T01:58:55.613Z,55.39
2022-08-16T02:01:26.099Z,55.38
2022-08-16T02:03:58.710Z,55.45
2022-08-16T02:06:46.184Z,55.63
2022-08-16T02:09:19.433Z,55.46
2022-08-16T02:11:57.030Z,55.30
2022-08-16T02:14:29.991Z,55.86
2022-08-16T02:16:59.006Z,55.77
2022-08-16T02:19:59.998Z,56.04
2022-08-16T02:22:33.659Z,55.82
2022-08-16T02:25:01.225Z,55.84
2022-08-16T02:27:28.524Z,55.89
2022-08-16T02:30:05.683Z,55.96
2022-08-16T02:32:50.365Z,56.04
2022-08-16T02:35:23.190Z,56.21
2022-08-16T02:37:53.481Z,56.13
2022-08-16T02:40:25.620Z,56.23
2022-08-16T02:42:53.494Z,56.28
2022-08-16T02:45:24.853Z,56.05
2022-08-16T02:48:00.593Z,56.12
2022-08-16T02:51:03.167Z,56.40
2022-08-16T02:53:30.552Z,56.43
2022-08-16T02:55:59.229Z,56.05
2022-08-16T02:58:28.113Z,56.64
2022-08-16T03:00:57.768Z,56.78
2022-08-16T03:03:26.947Z,56.65
2022-08-16T03:06:41.623Z,56.76
2022-08-16T03:09:13.038Z,56.72
2022-08-16T03:11:44.868Z,56.80
2022-08-16T03:14:12.316Z,56.89
2022-08-16T03:16:42.246Z,56.60
2022-08-16T03:19:26.633Z,56.93
2022-08-16T03:22:19.397Z,56.86
2022-08-16T03:24:58.415Z,56.80
2022-08-16T03:27:30.531Z,56.91
2022-08-16T03:30:17.427Z,56.91
2022-08-16T03:32:52.556Z,57.07
2022-08-16T03:35:33.485Z,57.32
2022-08-16T03:38:34.537Z,57.03
2022-08-16T03:40:59.846Z,57.18
2022-08-16T03:43:51.149Z,57.14
2022-08-16T03:46:44.461Z,57.37
2022-08-16T03:49:12.311Z,57.33
2022-08-16T03:51:41.042Z,57.14
2022-08-16T03:54:12.296Z,57.10
2022-08-16T03:56:56.973Z,57.50
2022-08-16T03:59:25.078Z,57.43
2022-08-16T04:01:53.769Z,57.60
2022-08-16T04:04:32.273Z,57.56
2022-08-16T04:07:03.350Z,57.72
2022-08-16T04:09:35.620Z,57.65
2022-08-16T04:12:11.395Z,57.50
2022-08-16T04:14:53.458Z,57.78
2022-08-16T04:17:21.973Z,57.87
2022-08-16T04:19:54.758Z,57.86
2022-08-16T04:22:27.633Z,57.80
2022-08-16T04:25:00.726Z,57.70
2022-08-16T04:27:33.629Z,57.63
2022-08-16T04:30:03.025Z,57.78
2022-08-16T04:32:36.183Z,58.17
2022-08-16T04:35:15.507Z,58.13
2022-08-16T04:37:45.364Z,57.94
2022-08-16T04:40:28.830Z,58.16
2022-08-16T04:42:59.886Z,58.31
2022-08-16T04:45:36.084Z,58.08
2022-08-16T04:48:28.165Z,58.34
2022-08-16T04:51:11.817Z,58.31
2022-08-16T04:53:47.567Z,58.55
2022-08-16T04:56:17.046Z,58.76
2022-08-16T04:58:46.941Z,58.85
2022-08-16T05:01:18.410Z,58.75
2022-08-16T05:04:01.011Z,59.14
2022-08-16T05:06:44.592Z,58.89
2022-08-16T05:09:39.525Z,58.75
2022-08-16T05:12:12.861Z,59.10
2022-08-16T05:15:01.981Z,58.93
2022-08-16T05:17:33.444Z,59.03
2022-08-16T05:20:39.100Z,59.19
2022-08-16T05:22:58.194Z,59.96
2022-08-16T05:25:36.408Z,59.15
2022-08-16T05:28:12.960Z,58.79
2022-08-16T05:30:46.071Z,58.70
2022-08-16T05:33:26.134Z,58.73
2022-08-16T05:35:56.895Z,58.90
2022-08-16T05:38:38.899Z,59.00
2022-08-16T05:41:10.455Z,59.13
2022-08-16T05:43:46.799Z,59.92
2022-08-16T05:46:33.701Z,59.45
2022-08-16T05:49:22.160Z,58.96
2022-08-16T05:51:55.725Z,60.08
2022-08-16T05:54:26.003Z,59.50
2022-08-16T05:56:57.202Z,59.42
2022-08-16T05:59:28.720Z,59.30
2022-08-16T06:02:06.068Z,59.56
2022-08-16T06:04:45.734Z,59.50
2022-08-16T06:07:26.209Z,59.75
2022-08-16T06:10:32.024Z,59.55
2022-08-16T06:13:05.990Z,59.89
2022-08-16T06:53:23.452Z,60.55
2022-08-16T06:55:59.016Z,60.31
2022-08-16T06:58:34.063Z,60.44
2022-08-16T07:01:14.856Z,60.80
2022-08-16T07:03:55.901Z,60.61
2022-08-16T07:06:31.601Z,60.67
2022-08-16T07:09:09.643Z,60.08
2022-08-16T07:29:04.929Z,59.54
2022-08-16T07:31:43.950Z,59.44
2022-08-16T07:37:55.018Z,58.57
2022-08-16T07:40:56.243Z,58.08
2022-08-16T07:57:26.678Z,57.65
2022-08-16T08:00:25.212Z,56.89
2022-08-16T08:06:00.806Z,57.05
2022-08-16T08:08:51.044Z,56.50
2022-08-16T08:11:23.664Z,56.19
2022-08-16T08:13:53.718Z,55.74
2022-08-16T09:42:05.854Z,50.35
2022-08-16T10:38:41.947Z,44.85
2022-08-16T10:41:27.634Z,42.48
2022-08-16T10:47:42.864Z,43.76
2022-08-16T12:50:32.967Z,35.57
2022-08-16T12:53:01.625Z,36.37
2022-08-16T12:55:33.626Z,36.31
2022-08-16T12:58:02.363Z,36.11
2022-08-16T13:00:33.273Z,36.08
2022-08-16T13:03:01.360Z,35.47
2022-08-16T13:05:28.814Z,36.07
2022-08-16T13:08:00.520Z,35.36
2022-08-16T13:10:37.071Z,36.03
2022-08-16T13:13:12.237Z,36.72
2022-08-16T13:49:08.361Z,38.64
2022-08-16T14:17:27.406Z,38.49
2022-08-16T14:49:02.921Z,38.10
2022-08-16T15:02:52.439Z,38.29
2022-08-16T15:05:27.266Z,39.14
2022-08-16T15:08:08.387Z,38.34
2022-08-16T15:11:13.300Z,39.38
2022-08-16T15:14:07.075Z,39.05
2022-08-16T15:16:34.426Z,39.91
2022-08-16T15:19:12.632Z,39.46
2022-08-16T15:21:50.444Z,39.45
2022-08-16T15:24:22.518Z,39.78
2022-08-16T15:26:50.028Z,39.85
2022-08-16T15:29:19.449Z,39.99
2022-08-16T15:31:48.369Z,40.47
2022-08-16T15:34:21.980Z,40.56
2022-08-16T15:36:53.890Z,41.23
2022-08-16T15:39:31.805Z,41.40
2022-08-16T15:42:11.249Z,41.49
2022-08-16T15:44:52.176Z,41.52
2022-08-16T15:51:09.528Z,42.08
2022-08-16T15:53:41.953Z,41.57
2022-08-16T15:56:16.662Z,41.50
2022-08-16T15:58:45.463Z,41.56
2022-08-16T16:01:23.940Z,41.97
2022-08-16T16:04:10.304Z,41.24
2022-08-16T16:17:00.819Z,41.44
2022-08-16T16:19:34.485Z,41.58
2022-08-16T16:22:03.989Z,42.16
2022-08-16T16:24:31.527Z,41.59
2022-08-16T16:27:05.711Z,42.67
2022-08-16T16:29:40.156Z,42.43
2022-08-16T16:32:08.523Z,42.21
2022-08-16T16:34:36.006Z,42.67
2022-08-16T16:37:03.730Z,42.79
2022-08-16T16:39:32.602Z,42.69
2022-08-16T16:42:00.110Z,44.06
2022-08-16T16:44:33.944Z,44.02
2022-08-16T16:47:03.901Z,43.82
2022-08-16T16:49:33.922Z,44.25
2022-08-16T16:52:07.264Z,44.49
2022-08-16T16:54:35.850Z,44.45
2022-08-16T16:57:04.728Z,43.97
2022-08-16T16:59:32.024Z,44.18
2022-08-16T17:02:38.186Z,44.61
2022-08-16T17:04:48.412Z,44.87
2022-08-16T17:07:15.928Z,44.73
2022-08-16T17:09:47.599Z,44.69
2022-08-16T17:12:24.505Z,45.67
2022-08-16T17:14:54.521Z,45.39
2022-08-16T17:17:22.148Z,45.66
2022-08-16T17:19:49.612Z,45.54
2022-08-16T17:22:19.777Z,45.57
2022-08-16T17:24:50.696Z,45.83
2022-08-16T17:27:33.697Z,45.78
2022-08-16T17:30:29.433Z,45.80
2022-08-16T17:33:11.830Z,46.09
2022-08-16T17:35:55.123Z,46.71
2022-08-16T17:38:38.837Z,46.71
2022-08-16T17:41:11.080Z,46.82
2022-08-16T17:43:44.261Z,46.53
2022-08-16T17:46:51.263Z,48.29
2022-08-16T17:48:59.240Z,47.96
2022-08-16T17:51:27.817Z,47.75
2022-08-16T17:53:55.258Z,47.69
2022-08-16T17:56:22.441Z,48.22
2022-08-16T17:58:49.537Z,47.98
2022-08-16T18:01:16.729Z,47.88
2022-08-16T18:04:07.639Z,48.07
2022-08-16T18:06:31.425Z,48.30
2022-08-16T18:09:03.503Z,48.41
2022-08-16T18:11:34.114Z,48.58
2022-08-16T18:14:01.407Z,48.18
2022-08-16T18:16:28.526Z,48.68
2022-08-16T18:18:55.745Z,48.25
2022-08-16T18:21:41.433Z,48.75
2022-08-16T18:24:09.481Z,48.68
2022-08-16T18:26:36.640Z,48.59
2022-08-16T18:29:04.199Z,48.77
2022-08-16T18:31:31.684Z,48.12
2022-08-16T18:33:58.793Z,48.30
2022-08-16T18:36:26.540Z,48.96
2022-08-16T18:38:53.813Z,48.89
2022-08-16T18:41:22.026Z,49.23
2022-08-16T18:44:22.400Z,48.99
2022-08-16T18:46:36.387Z,49.16
2022-08-16T18:49:03.469Z,49.06
2022-08-16T18:51:31.830Z,49.47
2022-08-16T18:53:58.994Z,50.06
2022-08-16T18:56:55.702Z,49.25
2022-08-16T18:59:13.481Z,49.72
2022-08-16T19:01:40.864Z,49.53
2022-08-16T19:04:50.512Z,49.55
2022-08-16T19:06:55.208Z,49.38
2022-08-16T19:09:22.290Z,49.74
2022-08-16T19:11:49.371Z,49.48
2022-08-16T19:14:16.386Z,49.66
2022-08-16T19:16:43.450Z,49.91
2022-08-16T19:19:10.500Z,49.90
2022-08-16T19:21:38.973Z,50.45
2022-08-16T19:24:06.184Z,50.17
2022-08-16T19:26:45.524Z,50.32
2022-08-16T19:29:13.574Z,49.97
2022-08-16T19:31:40.871Z,50.02
2022-08-16T19:34:09.022Z,49.89
2022-08-16T19:36:37.549Z,50.00
2022-08-16T19:39:10.224Z,50.37
2022-08-16T19:41:39.771Z,50.73
2022-08-16T19:44:07.142Z,50.72
2022-08-16T19:46:34.703Z,50.45
2022-08-16T19:49:01.723Z,50.58
2022-08-16T19:51:28.913Z,51.26
2022-08-16T19:53:56.047Z,50.98
2022-08-16T19:56:25.971Z,50.71
2022-08-16T19:59:18.021Z,51.10
2022-08-16T20:01:42.574Z,51.41
2022-08-16T20:04:12.735Z,50.71
2022-08-16T20:06:41.298Z,51.44
2022-08-16T20:09:08.348Z,51.01
2022-08-16T20:11:37.553Z,51.32
2022-08-16T20:14:05.794Z,51.50
2022-08-16T20:16:33.013Z,51.36
2022-08-16T20:19:00.233Z,51.30
2022-08-16T20:21:28.964Z,51.60
2022-08-16T20:24:09.956Z,51.58
2022-08-16T20:26:43.398Z,51.89
2022-08-16T20:29:10.554Z,51.51
2022-08-16T20:31:37.674Z,51.22
2022-08-16T20:34:04.777Z,51.90
2022-08-16T20:36:31.869Z,51.44
2022-08-16T20:39:00.471Z,51.35
2022-08-16T20:44:11.884Z,51.63
2022-08-16T20:46:39.712Z,51.73
2022-08-16T20:49:09.180Z,51.42
2022-08-16T20:51:50.891Z,51.83
2022-08-16T20:54:19.232Z,51.91
2022-08-16T20:56:46.321Z,52.18
2022-08-16T20:59:13.410Z,52.33
2022-08-16T21:01:45.897Z,52.18
2022-08-16T21:04:17.346Z,52.00
2022-08-16T21:07:31.538Z,51.83
2022-08-16T21:10:21.517Z,52.43
2022-08-16T21:12:54.759Z,52.26
2022-08-16T21:15:22.136Z,53.11
2022-08-16T21:17:49.325Z,52.51
2022-08-16T21:20:16.443Z,52.64
2022-08-16T21:22:43.574Z,52.79
2022-08-16T21:25:11.142Z,52.72
2022-08-16T21:27:42.383Z,52.47
2022-08-16T21:30:32.354Z,52.82
2022-08-16T21:33:13.732Z,52.68
2022-08-16T21:35:42.635Z,53.14
2022-08-16T21:38:29.146Z,53.09
2022-08-16T21:40:58.882Z,52.87
2022-08-16T21:43:27.753Z,53.08
2022-08-16T21:45:55.491Z,53.00
2022-08-16T21:48:33.871Z,52.70
2022-08-16T21:51:13.805Z,52.83
2022-08-16T21:53:41.884Z,52.95
2022-08-16T21:56:12.656Z,53.00
2022-08-16T21:58:45.902Z,53.16
2022-08-16T22:01:12.994Z,53.29
2022-08-16T22:04:36.203Z,53.61
2022-08-16T22:06:38.264Z,53.41
2022-08-16T22:09:08.643Z,53.63
2022-08-16T22:11:36.076Z,53.49
2022-08-16T22:14:04.486Z,53.68
2022-08-16T22:16:33.517Z,53.86
2022-08-16T22:19:01.138Z,54.13
2022-08-16T22:21:28.337Z,54.06
2022-08-16T22:23:57.585Z,54.32
2022-08-16T22:26:33.894Z,54.62
2022-08-16T22:29:02.215Z,54.51
2022-08-16T22:31:29.303Z,54.45
2022-08-16T22:33:57.036Z,54.46
2022-08-16T22:36:28.209Z,54.90
2022-08-16T22:38:58.058Z,54.48
2022-08-16T22:41:26.412Z,54.90
2022-08-16T22:43:54.408Z,54.71
2022-08-16T22:46:21.502Z,54.99
2022-08-16T22:48:51.416Z,54.71
2022-08-16T22:51:19.468Z,54.81
2022-08-16T22:53:47.219Z,54.72
2022-08-16T22:56:15.813Z,54.91
2022-08-16T22:58:43.144Z,54.61
2022-08-16T23:01:10.561Z,55.06
2022-08-16T23:03:37.772Z,54.98
2022-08-16T23:06:05.071Z,55.29
2022-08-16T23:08:38.775Z,55.08
2022-08-16T23:11:12.378Z,55.27
2022-08-16T23:13:52.416Z,55.51
2022-08-16T23:19:11.624Z,55.59
2022-08-16T23:21:54.724Z,55.53
2022-08-16T23:33:11.913Z,55.91
2022-08-16T23:38:37.837Z,56.22
2022-08-16T23:41:09.376Z,55.90
2022-08-16T23:43:41.989Z,56.25
2022-08-16T23:46:17.198Z,56.26
2022-08-16T23:49:58.571Z,56.39
2022-08-16T23:51:32.365Z,56.21
2022-08-16T23:54:00.366Z,56.12
2022-08-16T23:56:27.624Z,56.28
2022-08-16T23:59:02.983Z,56.09
